Terminal Aerodrome Forecast
Issued by NWS

Home | Current Version | Previous Version | Graphics & Text | Print | Product List | Glossary On
Versions: 1 2 3 4 5 6 7 8 9 10 11 12 13 14 15 16
143
FTUS43 KTOP 230520
TAFFOE
TAF
KFOE 230520Z 2306/2406 15008KT P6SM BKN250 WS010/18035KT
     FM231400 17013KT P6SM -TSRA BKN023CB
     FM231800 16014KT P6SM VCTS BKN020CB
     FM232300 16011KT P6SM SCT020
     FM240200 15008KT P6SM VCTS BKN030CB=

USA.gov is the U.S. government's official web portal to all federal, state and local government web resources and services.